sensor_id;sensor_type;location;lat;lon;timestamp;temperature;humidity
43087;DHT22;28708;52.224;6.924;2023-07-13T00:01:51;17.20;99.90
43087;DHT22;28708;52.224;6.924;2023-07-13T00:04:19;17.20;99.90
43087;DHT22;28708;52.224;6.924;2023-07-13T00:06:46;17.20;99.90
43087;DHT22;28708;52.224;6.924;2023-07-13T00:09:16;17.10;99.90
43087;DHT22;28708;52.224;6.924;2023-07-13T00:11:43;17.10;99.90
43087;DHT22;28708;52.224;6.924;2023-07-13T00:14:10;17.10;99.90
43087;DHT22;28708;52.224;6.924;2023-07-13T00:16:38;17.00;99.90
43087;DHT22;28708;52.224;6.924;2023-07-13T00:19:05;17.00;99.90
43087;DHT22;28708;52.224;6.924;2023-07-13T00:21:31;17.00;99.90
43087;DHT22;28708;52.224;6.924;2023-07-13T00:23:57;17.00;99.90
43087;DHT22;28708;52.224;6.924;2023-07-13T00:26:23;17.00;99.90
43087;DHT22;28708;52.224;6.924;2023-07-13T00:28:49;17.00;99.90
43087;DHT22;28708;52.224;6.924;2023-07-13T00:31:15;16.90;99.90
43087;DHT22;28708;52.224;6.924;2023-07-13T00:33:42;16.80;99.90
43087;DHT22;28708;52.224;6.924;2023-07-13T00:36:09;16.90;99.90
43087;DHT22;28708;52.224;6.924;2023-07-13T00:38:35;16.90;99.90
43087;DHT22;28708;52.224;6.924;2023-07-13T00:41:01;16.70;99.90
43087;DHT22;28708;52.224;6.924;2023-07-13T00:43:29;16.70;99.90
43087;DHT22;28708;52.224;6.924;2023-07-13T00:48:31;16.50;99.90
43087;DHT22;28708;52.224;6.924;2023-07-13T00:50:59;16.60;99.90
43087;DHT22;28708;52.224;6.924;2023-07-13T00:53:28;16.50;99.90
43087;DHT22;28708;52.224;6.924;2023-07-13T00:55:55;16.40;99.90
43087;DHT22;28708;52.224;6.924;2023-07-13T00:58:24;16.40;99.90
43087;DHT22;28708;52.224;6.924;2023-07-13T01:00:51;16.50;99.90
43087;DHT22;28708;52.224;6.924;2023-07-13T01:03:18;16.50;99.90
43087;DHT22;28708;52.224;6.924;2023-07-13T01:05:48;16.40;99.90
43087;DHT22;28708;52.224;6.924;2023-07-13T01:08:14;16.30;99.90
43087;DHT22;28708;52.224;6.924;2023-07-13T01:10:50;16.40;99.90
43087;DHT22;28708;52.224;6.924;2023-07-13T01:13:17;16.40;99.90
43087;DHT22;28708;52.224;6.924;2023-07-13T01:15:45;16.30;99.90
43087;DHT22;28708;52.224;6.924;2023-07-13T01:18:22;16.30;99.90
43087;DHT22;28708;52.224;6.924;2023-07-13T01:21:01;16.20;99.90
43087;DHT22;28708;52.224;6.924;2023-07-13T01:23:27;16.20;99.90
43087;DHT22;28708;52.224;6.924;2023-07-13T01:25:55;16.20;99.90
43087;DHT22;28708;52.224;6.924;2023-07-13T01:28:22;16.30;99.90
43087;DHT22;28708;52.224;6.924;2023-07-13T01:30:48;16.20;99.90
43087;DHT22;28708;52.224;6.924;2023-07-13T01:33:16;16.30;99.90
43087;DHT22;28708;52.224;6.924;2023-07-13T01:35:43;16.40;99.90
43087;DHT22;28708;52.224;6.924;2023-07-13T01:38:11;16.40;99.90
43087;DHT22;28708;52.224;6.924;2023-07-13T01:40:38;16.30;99.90
43087;DHT22;28708;52.224;6.924;2023-07-13T01:43:04;16.40;99.90
43087;DHT22;28708;52.224;6.924;2023-07-13T01:45:30;16.40;99.90
43087;DHT22;28708;52.224;6.924;2023-07-13T01:47:56;16.40;99.90
43087;DHT22;28708;52.224;6.924;2023-07-13T01:50:24;16.30;99.90
43087;DHT22;28708;52.224;6.924;2023-07-13T01:52:50;16.30;99.90
43087;DHT22;28708;52.224;6.924;2023-07-13T01:55:16;16.30;99.90
43087;DHT22;28708;52.224;6.924;2023-07-13T01:57:41;16.20;99.90
43087;DHT22;28708;52.224;6.924;2023-07-13T02:00:09;16.20;99.90
43087;DHT22;28708;52.224;6.924;2023-07-13T02:02:47;16.10;99.90
43087;DHT22;28708;52.224;6.924;2023-07-13T02:05:13;16.00;99.90
43087;DHT22;28708;52.224;6.924;2023-07-13T02:07:41;15.90;99.90
43087;DHT22;28708;52.224;6.924;2023-07-13T02:10:09;15.90;99.90
43087;DHT22;28708;52.224;6.924;2023-07-13T02:12:36;15.90;99.90
43087;DHT22;28708;52.224;6.924;2023-07-13T02:15:02;15.90;99.90
43087;DHT22;28708;52.224;6.924;2023-07-13T02:17:28;15.80;99.90
43087;DHT22;28708;52.224;6.924;2023-07-13T02:19:54;15.90;99.90
43087;DHT22;28708;52.224;6.924;2023-07-13T02:22:21;15.90;99.90
43087;DHT22;28708;52.224;6.924;2023-07-13T02:24:46;15.70;99.90
43087;DHT22;28708;52.224;6.924;2023-07-13T02:27:12;15.70;99.90
43087;DHT22;28708;52.224;6.924;2023-07-13T02:29:39;15.70;99.90
43087;DHT22;28708;52.224;6.924;2023-07-13T02:32:05;15.70;99.90
43087;DHT22;28708;52.224;6.924;2023-07-13T02:34:31;15.60;99.90
43087;DHT22;28708;52.224;6.924;2023-07-13T02:36:57;15.70;99.90
43087;DHT22;28708;52.224;6.924;2023-07-13T02:39:23;15.70;99.90
43087;DHT22;28708;52.224;6.924;2023-07-13T02:41:49;15.60;99.90
43087;DHT22;28708;52.224;6.924;2023-07-13T02:44:14;15.50;99.90
43087;DHT22;28708;52.224;6.924;2023-07-13T02:46:40;15.50;99.90
43087;DHT22;28708;52.224;6.924;2023-07-13T02:49:06;15.50;99.90
43087;DHT22;28708;52.224;6.924;2023-07-13T02:51:32;15.50;99.90
43087;DHT22;28708;52.224;6.924;2023-07-13T02:54:04;15.50;99.90
43087;DHT22;28708;52.224;6.924;2023-07-13T02:56:31;15.50;99.90
43087;DHT22;28708;52.224;6.924;2023-07-13T02:58:58;15.40;99.90
43087;DHT22;28708;52.224;6.924;2023-07-13T03:01:24;15.40;99.90
43087;DHT22;28708;52.224;6.924;2023-07-13T03:03:50;15.40;99.90
43087;DHT22;28708;52.224;6.924;2023-07-13T03:06:18;15.40;99.90
43087;DHT22;28708;52.224;6.924;2023-07-13T03:08:48;15.50;99.90
43087;DHT22;28708;52.224;6.924;2023-07-13T03:11:17;15.40;99.90
43087;DHT22;28708;52.224;6.924;2023-07-13T03:13:47;15.50;99.90
43087;DHT22;28708;52.224;6.924;2023-07-13T03:16:14;15.50;99.90
43087;DHT22;28708;52.224;6.924;2023-07-13T03:18:42;15.50;99.90
43087;DHT22;28708;52.224;6.924;2023-07-13T03:21:10;15.40;99.90
43087;DHT22;28708;52.224;6.924;2023-07-13T03:23:36;15.50;99.90
43087;DHT22;28708;52.224;6.924;2023-07-13T03:26:05;15.40;99.90
43087;DHT22;28708;52.224;6.924;2023-07-13T03:28:32;15.50;99.90
43087;DHT22;28708;52.224;6.924;2023-07-13T03:31:06;15.50;99.90
43087;DHT22;28708;52.224;6.924;2023-07-13T03:33:32;15.50;99.90
43087;DHT22;28708;52.224;6.924;2023-07-13T03:35:58;15.50;99.90
43087;DHT22;28708;52.224;6.924;2023-07-13T03:38:24;15.40;99.90
43087;DHT22;28708;52.224;6.924;2023-07-13T03:40:52;15.40;99.90
43087;DHT22;28708;52.224;6.924;2023-07-13T03:43:18;15.30;99.90
43087;DHT22;28708;52.224;6.924;2023-07-13T03:45:47;15.30;99.90
43087;DHT22;28708;52.224;6.924;2023-07-13T03:48:13;15.30;99.90
43087;DHT22;28708;52.224;6.924;2023-07-13T03:50:39;15.40;99.90
43087;DHT22;28708;52.224;6.924;2023-07-13T03:53:05;15.50;99.90
43087;DHT22;28708;52.224;6.924;2023-07-13T03:55:31;15.40;99.90
43087;DHT22;28708;52.224;6.924;2023-07-13T03:58:44;15.30;99.90
43087;DHT22;28708;52.224;6.924;2023-07-13T04:00:46;15.40;99.90
43087;DHT22;28708;52.224;6.924;2023-07-13T04:03:11;15.40;99.90
43087;DHT22;28708;52.224;6.924;2023-07-13T04:05:38;15.40;99.90
43087;DHT22;28708;52.224;6.924;2023-07-13T04:08:06;15.50;99.90
43087;DHT22;28708;52.224;6.924;2023-07-13T04:10:32;15.40;99.90
43087;DHT22;28708;52.224;6.924;2023-07-13T04:12:58;15.30;99.90
43087;DHT22;28708;52.224;6.924;2023-07-13T04:15:24;15.40;99.90
43087;DHT22;28708;52.224;6.924;2023-07-13T04:17:50;15.40;99.90
43087;DHT22;28708;52.224;6.924;2023-07-13T04:20:15;15.40;99.90
43087;DHT22;28708;52.224;6.924;2023-07-13T04:22:41;15.50;99.90
43087;DHT22;28708;52.224;6.924;2023-07-13T04:25:07;15.50;99.90
43087;DHT22;28708;52.224;6.924;2023-07-13T04:27:33;15.40;99.90
43087;DHT22;28708;52.224;6.924;2023-07-13T04:29:59;15.40;99.90
43087;DHT22;28708;52.224;6.924;2023-07-13T04:32:24;15.30;99.90
43087;DHT22;28708;52.224;6.924;2023-07-13T04:34:50;15.20;99.90
43087;DHT22;28708;52.224;6.924;2023-07-13T04:37:19;15.20;99.90
43087;DHT22;28708;52.224;6.924;2023-07-13T04:39:45;15.30;99.90
43087;DHT22;28708;52.224;6.924;2023-07-13T04:42:11;15.20;99.90
43087;DHT22;28708;52.224;6.924;2023-07-13T04:44:36;15.20;99.90
43087;DHT22;28708;52.224;6.924;2023-07-13T04:47:02;15.20;99.90
43087;DHT22;28708;52.224;6.924;2023-07-13T04:49:28;15.20;99.90
43087;DHT22;28708;52.224;6.924;2023-07-13T04:51:54;15.20;99.90
43087;DHT22;28708;52.224;6.924;2023-07-13T04:54:20;15.30;99.90
43087;DHT22;28708;52.224;6.924;2023-07-13T04:56:47;15.20;99.90
43087;DHT22;28708;52.224;6.924;2023-07-13T04:59:13;15.20;99.90
43087;DHT22;28708;52.224;6.924;2023-07-13T05:01:39;15.20;99.90
43087;DHT22;28708;52.224;6.924;2023-07-13T05:04:06;15.20;99.90
43087;DHT22;28708;52.224;6.924;2023-07-13T05:06:32;15.20;99.90
43087;DHT22;28708;52.224;6.924;2023-07-13T05:08:57;15.30;99.90
43087;DHT22;28708;52.224;6.924;2023-07-13T05:11:23;15.40;99.90
43087;DHT22;28708;52.224;6.924;2023-07-13T05:13:49;15.40;99.90
43087;DHT22;28708;52.224;6.924;2023-07-13T05:16:15;15.40;99.90
43087;DHT22;28708;52.224;6.924;2023-07-13T05:18:41;15.40;99.90
43087;DHT22;28708;52.224;6.924;2023-07-13T05:21:09;15.50;99.90
43087;DHT22;28708;52.224;6.924;2023-07-13T05:23:36;15.40;99.90
43087;DHT22;28708;52.224;6.924;2023-07-13T05:26:03;15.60;99.90
43087;DHT22;28708;52.224;6.924;2023-07-13T05:28:30;15.60;99.90
43087;DHT22;28708;52.224;6.924;2023-07-13T05:30:56;15.60;99.90
43087;DHT22;28708;52.224;6.924;2023-07-13T05:33:22;15.70;99.90
43087;DHT22;28708;52.224;6.924;2023-07-13T05:35:48;15.80;99.90
43087;DHT22;28708;52.224;6.924;2023-07-13T05:38:14;15.60;99.90
43087;DHT22;28708;52.224;6.924;2023-07-13T05:40:43;15.60;99.90
43087;DHT22;28708;52.224;6.924;2023-07-13T05:43:09;15.80;99.90
43087;DHT22;28708;52.224;6.924;2023-07-13T05:45:35;15.80;99.90
43087;DHT22;28708;52.224;6.924;2023-07-13T05:48:01;15.80;99.90
43087;DHT22;28708;52.224;6.924;2023-07-13T05:50:26;16.00;99.90
43087;DHT22;28708;52.224;6.924;2023-07-13T05:52:52;15.90;99.90
43087;DHT22;28708;52.224;6.924;2023-07-13T05:55:19;16.00;99.90
43087;DHT22;28708;52.224;6.924;2023-07-13T05:57:45;16.00;99.90
43087;DHT22;28708;52.224;6.924;2023-07-13T06:00:11;16.10;99.90
43087;DHT22;28708;52.224;6.924;2023-07-13T06:02:40;16.10;99.90
43087;DHT22;28708;52.224;6.924;2023-07-13T06:05:06;16.10;99.90
43087;DHT22;28708;52.224;6.924;2023-07-13T06:07:31;16.20;99.90
43087;DHT22;28708;52.224;6.924;2023-07-13T06:09:57;16.30;99.90
43087;DHT22;28708;52.224;6.924;2023-07-13T06:12:25;16.40;99.90
43087;DHT22;28708;52.224;6.924;2023-07-13T06:14:51;16.50;99.90
43087;DHT22;28708;52.224;6.924;2023-07-13T06:17:17;16.40;99.90
43087;DHT22;28708;52.224;6.924;2023-07-13T06:19:43;16.50;99.90
43087;DHT22;28708;52.224;6.924;2023-07-13T06:22:09;16.50;99.90
43087;DHT22;28708;52.224;6.924;2023-07-13T06:24:35;16.70;99.90
43087;DHT22;28708;52.224;6.924;2023-07-13T06:27:01;16.60;99.90
43087;DHT22;28708;52.224;6.924;2023-07-13T06:29:27;16.50;99.90
43087;DHT22;28708;52.224;6.924;2023-07-13T06:31:52;16.80;99.90
43087;DHT22;28708;52.224;6.924;2023-07-13T06:34:18;16.90;99.90
43087;DHT22;28708;52.224;6.924;2023-07-13T06:36:44;16.80;99.90
43087;DHT22;28708;52.224;6.924;2023-07-13T06:39:10;16.90;99.90
43087;DHT22;28708;52.224;6.924;2023-07-13T06:41:36;16.90;99.90
43087;DHT22;28708;52.224;6.924;2023-07-13T06:44:02;16.80;99.90
43087;DHT22;28708;52.224;6.924;2023-07-13T06:46:29;17.10;99.90
43087;DHT22;28708;52.224;6.924;2023-07-13T06:48:55;17.20;99.90
43087;DHT22;28708;52.224;6.924;2023-07-13T06:51:21;17.20;99.90
43087;DHT22;28708;52.224;6.924;2023-07-13T06:53:47;17.40;99.90
43087;DHT22;28708;52.224;6.924;2023-07-13T06:56:13;17.20;99.90
43087;DHT22;28708;52.224;6.924;2023-07-13T06:58:39;17.20;99.90
43087;DHT22;28708;52.224;6.924;2023-07-13T07:01:05;17.20;99.90
43087;DHT22;28708;52.224;6.924;2023-07-13T07:03:31;17.40;99.90
43087;DHT22;28708;52.224;6.924;2023-07-13T07:06:06;17.60;99.90
43087;DHT22;28708;52.224;6.924;2023-07-13T07:08:35;17.90;99.90
43087;DHT22;28708;52.224;6.924;2023-07-13T07:11:00;18.00;99.90
43087;DHT22;28708;52.224;6.924;2023-07-13T07:13:26;17.80;99.90
43087;DHT22;28708;52.224;6.924;2023-07-13T07:15:53;17.70;99.90
43087;DHT22;28708;52.224;6.924;2023-07-13T07:18:19;17.70;99.90
43087;DHT22;28708;52.224;6.924;2023-07-13T07:20:45;17.90;99.90
43087;DHT22;28708;52.224;6.924;2023-07-13T07:23:11;17.80;99.90
43087;DHT22;28708;52.224;6.924;2023-07-13T07:25:36;17.70;99.90
43087;DHT22;28708;52.224;6.924;2023-07-13T07:28:08;17.80;99.90
43087;DHT22;28708;52.224;6.924;2023-07-13T07:30:33;18.10;99.90
43087;DHT22;28708;52.224;6.924;2023-07-13T07:33:00;18.10;99.90
43087;DHT22;28708;52.224;6.924;2023-07-13T07:35:26;18.30;99.90
43087;DHT22;28708;52.224;6.924;2023-07-13T07:37:52;18.30;99.90
43087;DHT22;28708;52.224;6.924;2023-07-13T07:40:18;18.50;99.90
43087;DHT22;28708;52.224;6.924;2023-07-13T07:42:44;18.80;99.90
43087;DHT22;28708;52.224;6.924;2023-07-13T07:45:10;18.00;99.90
43087;DHT22;28708;52.224;6.924;2023-07-13T07:47:39;18.20;99.90
43087;DHT22;28708;52.224;6.924;2023-07-13T07:50:05;18.10;99.90
43087;DHT22;28708;52.224;6.924;2023-07-13T07:52:31;18.50;99.90
43087;DHT22;28708;52.224;6.924;2023-07-13T07:54:57;18.70;99.90
43087;DHT22;28708;52.224;6.924;2023-07-13T07:57:22;18.40;99.90
43087;DHT22;28708;52.224;6.924;2023-07-13T07:59:48;18.40;99.90
43087;DHT22;28708;52.224;6.924;2023-07-13T08:02:14;18.40;99.90
43087;DHT22;28708;52.224;6.924;2023-07-13T08:04:40;18.20;99.90
43087;DHT22;28708;52.224;6.924;2023-07-13T08:07:06;18.30;99.90
43087;DHT22;28708;52.224;6.924;2023-07-13T08:09:32;18.60;99.90
43087;DHT22;28708;52.224;6.924;2023-07-13T08:11:57;18.60;99.90
43087;DHT22;28708;52.224;6.924;2023-07-13T08:14:23;18.70;99.90
43087;DHT22;28708;52.224;6.924;2023-07-13T08:16:49;18.80;99.90
43087;DHT22;28708;52.224;6.924;2023-07-13T08:19:15;18.90;99.90
43087;DHT22;28708;52.224;6.924;2023-07-13T08:21:41;18.60;99.90
43087;DHT22;28708;52.224;6.924;2023-07-13T08:24:09;18.60;99.90
43087;DHT22;28708;52.224;6.924;2023-07-13T08:26:35;18.90;99.90
43087;DHT22;28708;52.224;6.924;2023-07-13T08:29:00;19.30;99.90
43087;DHT22;28708;52.224;6.924;2023-07-13T08:31:27;19.80;99.90
43087;DHT22;28708;52.224;6.924;2023-07-13T08:33:53;20.20;99.90
43087;DHT22;28708;52.224;6.924;2023-07-13T08:36:19;20.00;99.90
43087;DHT22;28708;52.224;6.924;2023-07-13T08:38:45;19.90;99.90
43087;DHT22;28708;52.224;6.924;2023-07-13T08:41:16;20.00;99.90
43087;DHT22;28708;52.224;6.924;2023-07-13T08:43:45;20.50;99.90
43087;DHT22;28708;52.224;6.924;2023-07-13T08:48:55;19.50;99.90
43087;DHT22;28708;52.224;6.924;2023-07-13T08:53:54;19.50;99.90
43087;DHT22;28708;52.224;6.924;2023-07-13T08:56:23;19.50;99.90
43087;DHT22;28708;52.224;6.924;2023-07-13T08:58:51;20.00;99.90
43087;DHT22;28708;52.224;6.924;2023-07-13T09:04:21;19.90;99.90
43087;DHT22;28708;52.224;6.924;2023-07-13T09:06:59;19.90;99.90
43087;DHT22;28708;52.224;6.924;2023-07-13T09:09:37;20.40;99.90
43087;DHT22;28708;52.224;6.924;2023-07-13T09:14:45;20.30;99.90
43087;DHT22;28708;52.224;6.924;2023-07-13T09:17:37;19.90;99.90
43087;DHT22;28708;52.224;6.924;2023-07-13T09:20:24;20.80;99.90
43087;DHT22;28708;52.224;6.924;2023-07-13T09:22:52;20.90;99.90
43087;DHT22;28708;52.224;6.924;2023-07-13T09:25:32;20.80;99.90
43087;DHT22;28708;52.224;6.924;2023-07-13T09:28:14;20.60;99.90
43087;DHT22;28708;52.224;6.924;2023-07-13T09:33:13;22.30;99.90
43087;DHT22;28708;52.224;6.924;2023-07-13T09:35:40;21.50;99.90
43087;DHT22;28708;52.224;6.924;2023-07-13T09:38:12;21.40;99.90
43087;DHT22;28708;52.224;6.924;2023-07-13T09:44:06;20.90;99.90
43087;DHT22;28708;52.224;6.924;2023-07-13T09:46:34;20.90;99.90
43087;DHT22;28708;52.224;6.924;2023-07-13T09:49:00;20.80;99.90
43087;DHT22;28708;52.224;6.924;2023-07-13T09:51:26;20.60;99.90
43087;DHT22;28708;52.224;6.924;2023-07-13T09:53:53;20.70;99.90
43087;DHT22;28708;52.224;6.924;2023-07-13T09:56:21;20.70;99.90
43087;DHT22;28708;52.224;6.924;2023-07-13T09:58:47;21.70;99.90
43087;DHT22;28708;52.224;6.924;2023-07-13T10:01:13;21.70;99.90
43087;DHT22;28708;52.224;6.924;2023-07-13T10:03:54;21.60;99.90
43087;DHT22;28708;52.224;6.924;2023-07-13T10:06:21;21.30;99.90
43087;DHT22;28708;52.224;6.924;2023-07-13T10:08:51;20.80;99.90
43087;DHT22;28708;52.224;6.924;2023-07-13T10:11:30;20.40;99.90
43087;DHT22;28708;52.224;6.924;2023-07-13T10:14:01;20.50;99.90
43087;DHT22;28708;52.224;6.924;2023-07-13T10:16:32;20.50;99.90
43087;DHT22;28708;52.224;6.924;2023-07-13T10:21:57;21.10;99.90
43087;DHT22;28708;52.224;6.924;2023-07-13T10:24:31;20.50;99.90
43087;DHT22;28708;52.224;6.924;2023-07-13T10:29:34;20.50;99.90
43087;DHT22;28708;52.224;6.924;2023-07-13T10:32:01;21.20;99.90
43087;DHT22;28708;52.224;6.924;2023-07-13T10:34:27;22.00;99.90
43087;DHT22;28708;52.224;6.924;2023-07-13T10:36:53;22.90;99.90
43087;DHT22;28708;52.224;6.924;2023-07-13T10:39:22;22.00;99.90
43087;DHT22;28708;52.224;6.924;2023-07-13T10:41:57;21.70;99.90
43087;DHT22;28708;52.224;6.924;2023-07-13T10:44:30;22.80;99.90
43087;DHT22;28708;52.224;6.924;2023-07-13T10:47:01;22.90;99.90
43087;DHT22;28708;52.224;6.924;2023-07-13T10:49:30;22.20;99.90
43087;DHT22;28708;52.224;6.924;2023-07-13T10:51:56;22.50;99.90
43087;DHT22;28708;52.224;6.924;2023-07-13T10:54:34;22.00;99.90
43087;DHT22;28708;52.224;6.924;2023-07-13T10:57:17;22.10;99.90
43087;DHT22;28708;52.224;6.924;2023-07-13T11:00:16;22.60;99.90
43087;DHT22;28708;52.224;6.924;2023-07-13T11:02:43;22.80;99.90
43087;DHT22;28708;52.224;6.924;2023-07-13T11:05:28;22.20;99.90
43087;DHT22;28708;52.224;6.924;2023-07-13T11:08:03;22.00;99.90
43087;DHT22;28708;52.224;6.924;2023-07-13T11:10:54;21.80;99.90
43087;DHT22;28708;52.224;6.924;2023-07-13T11:16:34;21.10;99.90
43087;DHT22;28708;52.224;6.924;2023-07-13T11:21:29;20.00;99.90
43087;DHT22;28708;52.224;6.924;2023-07-13T11:29:33;19.30;99.90
43087;DHT22;28708;52.224;6.924;2023-07-13T11:32:10;19.80;99.90
43087;DHT22;28708;52.224;6.924;2023-07-13T11:34:46;20.90;99.90
43087;DHT22;28708;52.224;6.924;2023-07-13T11:37:15;21.80;99.90
43087;DHT22;28708;52.224;6.924;2023-07-13T11:39:43;21.40;99.90
43087;DHT22;28708;52.224;6.924;2023-07-13T11:42:13;21.50;99.90
43087;DHT22;28708;52.224;6.924;2023-07-13T11:44:52;21.60;99.90
43087;DHT22;28708;52.224;6.924;2023-07-13T11:47:21;21.70;99.90
43087;DHT22;28708;52.224;6.924;2023-07-13T11:49:54;22.10;99.90
43087;DHT22;28708;52.224;6.924;2023-07-13T11:52:36;21.80;99.90
43087;DHT22;28708;52.224;6.924;2023-07-13T11:55:15;22.00;99.90
43087;DHT22;28708;52.224;6.924;2023-07-13T11:57:50;22.50;99.90
43087;DHT22;28708;52.224;6.924;2023-07-13T12:00:21;22.30;99.90
43087;DHT22;28708;52.224;6.924;2023-07-13T12:02:51;22.00;99.90
43087;DHT22;28708;52.224;6.924;2023-07-13T12:05:18;21.50;99.90
43087;DHT22;28708;52.224;6.924;2023-07-13T12:07:44;21.10;99.90
43087;DHT22;28708;52.224;6.924;2023-07-13T12:10:28;20.00;99.90
43087;DHT22;28708;52.224;6.924;2023-07-13T12:13:05;19.60;99.90
43087;DHT22;28708;52.224;6.924;2023-07-13T12:15:40;18.60;99.90
43087;DHT22;28708;52.224;6.924;2023-07-13T12:18:29;18.20;99.90
43087;DHT22;28708;52.224;6.924;2023-07-13T12:20:58;17.80;99.90
43087;DHT22;28708;52.224;6.924;2023-07-13T12:25:55;18.10;99.90
43087;DHT22;28708;52.224;6.924;2023-07-13T12:28:31;18.20;99.90
43087;DHT22;28708;52.224;6.924;2023-07-13T12:31:02;18.10;99.90
43087;DHT22;28708;52.224;6.924;2023-07-13T12:33:30;18.30;99.90
43087;DHT22;28708;52.224;6.924;2023-07-13T12:36:00;18.20;99.90
43087;DHT22;28708;52.224;6.924;2023-07-13T12:38:27;18.00;99.90
43087;DHT22;28708;52.224;6.924;2023-07-13T12:40:54;18.00;99.90
43087;DHT22;28708;52.224;6.924;2023-07-13T12:43:21;18.30;99.90
43087;DHT22;28708;52.224;6.924;2023-07-13T12:46:18;18.60;99.90
43087;DHT22;28708;52.224;6.924;2023-07-13T12:48:50;18.90;99.90
43087;DHT22;28708;52.224;6.924;2023-07-13T12:51:16;19.20;99.90
43087;DHT22;28708;52.224;6.924;2023-07-13T12:53:49;19.50;99.90
43087;DHT22;28708;52.224;6.924;2023-07-13T12:56:23;19.10;99.90
43087;DHT22;28708;52.224;6.924;2023-07-13T12:58:50;19.30;99.90
43087;DHT22;28708;52.224;6.924;2023-07-13T13:01:21;19.50;99.90
43087;DHT22;28708;52.224;6.924;2023-07-13T13:03:50;19.30;99.90
43087;DHT22;28708;52.224;6.924;2023-07-13T13:06:24;19.40;99.90
43087;DHT22;28708;52.224;6.924;2023-07-13T13:08:52;19.50;99.90
43087;DHT22;28708;52.224;6.924;2023-07-13T13:11:20;19.80;99.90
43087;DHT22;28708;52.224;6.924;2023-07-13T13:13:46;19.90;99.90
43087;DHT22;28708;52.224;6.924;2023-07-13T13:19:16;20.10;99.90
43087;DHT22;28708;52.224;6.924;2023-07-13T13:21:43;20.40;99.90
43087;DHT22;28708;52.224;6.924;2023-07-13T13:24:17;20.80;99.90
43087;DHT22;28708;52.224;6.924;2023-07-13T13:26:46;21.20;99.90
43087;DHT22;28708;52.224;6.924;2023-07-13T13:29:13;21.50;99.90
43087;DHT22;28708;52.224;6.924;2023-07-13T13:31:39;21.70;99.90
43087;DHT22;28708;52.224;6.924;2023-07-13T13:34:09;21.30;99.90
43087;DHT22;28708;52.224;6.924;2023-07-13T13:36:35;21.00;99.90
43087;DHT22;28708;52.224;6.924;2023-07-13T13:39:01;21.00;99.90
43087;DHT22;28708;52.224;6.924;2023-07-13T13:41:27;21.00;99.90
43087;DHT22;28708;52.224;6.924;2023-07-13T13:43:53;20.60;99.90
43087;DHT22;28708;52.224;6.924;2023-07-13T13:46:22;20.50;99.90
43087;DHT22;28708;52.224;6.924;2023-07-13T13:48:50;20.50;99.90
43087;DHT22;28708;52.224;6.924;2023-07-13T13:51:21;20.50;99.90
43087;DHT22;28708;52.224;6.924;2023-07-13T13:53:47;20.30;99.90
43087;DHT22;28708;52.224;6.924;2023-07-13T13:56:14;19.90;99.90
43087;DHT22;28708;52.224;6.924;2023-07-13T13:58:40;19.80;99.90
43087;DHT22;28708;52.224;6.924;2023-07-13T14:01:30;19.60;99.90
43087;DHT22;28708;52.224;6.924;2023-07-13T14:03:56;19.50;99.90
43087;DHT22;28708;52.224;6.924;2023-07-13T14:06:22;19.10;99.90
43087;DHT22;28708;52.224;6.924;2023-07-13T14:08:48;18.70;99.90
43087;DHT22;28708;52.224;6.924;2023-07-13T14:11:17;18.60;99.90
43087;DHT22;28708;52.224;6.924;2023-07-13T14:13:47;18.80;99.90
43087;DHT22;28708;52.224;6.924;2023-07-13T14:16:19;19.00;99.90
43087;DHT22;28708;52.224;6.924;2023-07-13T14:18:48;19.00;99.90
43087;DHT22;28708;52.224;6.924;2023-07-13T14:21:16;19.00;99.90
43087;DHT22;28708;52.224;6.924;2023-07-13T14:23:44;19.30;99.90
43087;DHT22;28708;52.224;6.924;2023-07-13T14:26:12;19.60;99.90
43087;DHT22;28708;52.224;6.924;2023-07-13T14:28:42;19.50;99.90
43087;DHT22;28708;52.224;6.924;2023-07-13T14:31:09;19.50;99.90
43087;DHT22;28708;52.224;6.924;2023-07-13T14:33:35;19.60;99.90
43087;DHT22;28708;52.224;6.924;2023-07-13T14:36:02;20.00;99.90
43087;DHT22;28708;52.224;6.924;2023-07-13T14:38:28;19.90;99.90
43087;DHT22;28708;52.224;6.924;2023-07-13T14:40:54;19.90;99.90
43087;DHT22;28708;52.224;6.924;2023-07-13T14:43:20;19.80;99.90
43087;DHT22;28708;52.224;6.924;2023-07-13T14:45:50;20.10;99.90
43087;DHT22;28708;52.224;6.924;2023-07-13T14:48:23;20.80;99.90
43087;DHT22;28708;52.224;6.924;2023-07-13T14:50:57;21.10;99.90
43087;DHT22;28708;52.224;6.924;2023-07-13T14:53:25;20.80;99.90
43087;DHT22;28708;52.224;6.924;2023-07-13T14:55:53;21.00;99.90
43087;DHT22;28708;52.224;6.924;2023-07-13T14:58:19;20.70;99.90
43087;DHT22;28708;52.224;6.924;2023-07-13T15:00:45;20.60;99.90
43087;DHT22;28708;52.224;6.924;2023-07-13T15:03:23;20.90;99.90
43087;DHT22;28708;52.224;6.924;2023-07-13T15:05:49;21.00;99.90
43087;DHT22;28708;52.224;6.924;2023-07-13T15:08:15;21.30;99.90
43087;DHT22;28708;52.224;6.924;2023-07-13T15:10:41;21.50;99.90
43087;DHT22;28708;52.224;6.924;2023-07-13T15:13:18;21.50;99.90
43087;DHT22;28708;52.224;6.924;2023-07-13T15:15:50;21.20;99.90
43087;DHT22;28708;52.224;6.924;2023-07-13T15:18:19;21.60;99.90
43087;DHT22;28708;52.224;6.924;2023-07-13T15:20:46;21.70;99.90
43087;DHT22;28708;52.224;6.924;2023-07-13T15:23:14;21.90;99.90
43087;DHT22;28708;52.224;6.924;2023-07-13T15:25:41;21.90;99.90
43087;DHT22;28708;52.224;6.924;2023-07-13T15:28:07;21.90;99.90
43087;DHT22;28708;52.224;6.924;2023-07-13T15:30:44;21.80;99.90
43087;DHT22;28708;52.224;6.924;2023-07-13T15:33:19;21.80;99.90
43087;DHT22;28708;52.224;6.924;2023-07-13T15:35:45;21.50;99.90
43087;DHT22;28708;52.224;6.924;2023-07-13T15:38:16;21.00;99.90
43087;DHT22;28708;52.224;6.924;2023-07-13T15:40:42;20.80;99.90
43087;DHT22;28708;52.224;6.924;2023-07-13T15:43:13;20.80;99.90
43087;DHT22;28708;52.224;6.924;2023-07-13T15:45:40;20.80;99.90
43087;DHT22;28708;52.224;6.924;2023-07-13T15:48:19;20.70;99.90
43087;DHT22;28708;52.224;6.924;2023-07-13T15:50:46;20.60;99.90
43087;DHT22;28708;52.224;6.924;2023-07-13T15:53:24;20.40;99.90
43087;DHT22;28708;52.224;6.924;2023-07-13T15:55:51;20.30;99.90
43087;DHT22;28708;52.224;6.924;2023-07-13T15:58:18;20.60;99.90
43087;DHT22;28708;52.224;6.924;2023-07-13T16:00:44;20.70;99.90
43087;DHT22;28708;52.224;6.924;2023-07-13T16:03:10;20.80;99.90
43087;DHT22;28708;52.224;6.924;2023-07-13T16:05:37;21.10;99.90
43087;DHT22;28708;52.224;6.924;2023-07-13T16:08:04;21.30;99.90
43087;DHT22;28708;52.224;6.924;2023-07-13T16:10:32;21.30;99.90
43087;DHT22;28708;52.224;6.924;2023-07-13T16:13:00;21.30;99.90
43087;DHT22;28708;52.224;6.924;2023-07-13T16:15:26;21.10;99.90
43087;DHT22;28708;52.224;6.924;2023-07-13T16:17:52;21.00;99.90
43087;DHT22;28708;52.224;6.924;2023-07-13T16:20:18;21.00;99.90